createdAt,value
2018-04-28T04:10:02.057Z,10
2018-04-28T04:10:27.552Z,10
2018-04-28T04:10:53.037Z,10
2018-04-28T04:11:18.540Z,10
2018-04-28T04:11:44.023Z,10
2018-04-28T04:12:09.553Z,10
2018-04-28T04:12:35.089Z,10
2018-04-28T04:13:00.603Z,10
2018-04-28T04:13:26.187Z,10
2018-04-28T04:13:51.658Z,15
2018-04-28T04:14:17.175Z,15
2018-04-28T04:14:42.679Z,15
2018-04-28T04:15:08.201Z,15
2018-04-28T04:15:33.696Z,15
2018-04-28T04:15:59.189Z,15
2018-04-28T04:16:25.031Z,15
2018-04-28T04:16:50.507Z,15
2018-04-28T04:17:16.045Z,15
2018-04-28T04:17:41.615Z,20
2018-04-28T04:18:07.163Z,20
2018-04-28T04:18:32.618Z,20
2018-04-28T04:18:58.125Z,20
2018-04-28T04:19:23.592Z,20
2018-04-28T04:19:49.102Z,20
2018-04-28T04:20:14.604Z,20
2018-04-28T04:20:40.236Z,20
2018-04-28T04:21:05.810Z,20
2018-04-28T04:21:31.294Z,20
2018-04-28T04:21:56.801Z,25
2018-04-28T04:22:22.327Z,25
2018-04-28T04:22:47.806Z,25
2018-04-28T04:23:13.276Z,25
2018-04-28T04:23:38.770Z,25
2018-04-28T04:24:04.499Z,25
2018-04-28T04:24:29.984Z,25
2018-04-28T04:24:55.478Z,25
2018-04-28T04:25:20.936Z,30
2018-04-28T04:25:46.409Z,30
2018-04-28T04:26:11.946Z,30
2018-04-28T04:26:37.462Z,30
2018-04-28T04:27:02.925Z,30
2018-04-28T04:27:28.398Z,30
2018-04-28T04:27:53.938Z,30
2018-04-28T04:28:19.424Z,35
2018-04-28T04:28:44.957Z,35
2018-04-28T04:29:10.464Z,35
2018-04-28T04:29:36.048Z,35
2018-04-28T04:30:01.479Z,40
2018-04-28T04:30:26.956Z,40
2018-04-28T04:30:52.446Z,40
2018-04-28T04:31:18.097Z,40
2018-04-28T04:31:43.533Z,40
2018-04-28T04:32:09.040Z,40
2018-04-28T04:32:34.547Z,40
2018-04-28T04:33:00.045Z,40
2018-04-28T04:33:25.565Z,40
2018-04-28T04:33:51.089Z,40
2018-04-28T04:34:16.614Z,45
2018-04-28T04:34:42.099Z,45
2018-04-28T04:35:07.574Z,45
2018-04-28T04:35:33.028Z,50
2018-04-28T04:35:58.538Z,50
2018-04-28T04:36:24.105Z,50
2018-04-28T04:36:49.647Z,50
2018-04-28T04:37:15.121Z,55
2018-04-28T04:37:40.645Z,55
2018-04-28T04:38:06.130Z,55
2018-04-28T04:38:31.628Z,60
2018-04-28T04:38:57.138Z,60
2018-04-28T04:39:22.616Z,60
2018-04-28T04:39:48.092Z,60
2018-04-28T04:40:13.783Z,60
2018-04-28T04:40:39.373Z,65
2018-04-28T04:41:04.933Z,65
2018-04-28T04:41:30.445Z,65
2018-04-28T04:41:55.969Z,65
2018-04-28T04:42:21.480Z,65
2018-04-28T04:42:46.936Z,65
2018-04-28T04:43:12.416Z,70
2018-04-28T04:43:37.933Z,70
2018-04-28T04:44:03.418Z,70
2018-04-28T04:44:28.916Z,70
2018-04-28T04:45:42.733Z,70
2018-04-28T04:46:08.226Z,70
2018-04-28T04:46:33.715Z,70
2018-04-28T04:46:59.228Z,70
2018-04-28T04:47:24.721Z,75
2018-04-28T04:47:50.208Z,75
2018-04-28T04:48:15.679Z,75
2018-04-28T04:48:41.171Z,75
2018-04-28T04:49:06.628Z,75
2018-04-28T04:49:32.130Z,75
2018-04-28T04:49:57.621Z,80
2018-04-28T04:50:23.155Z,80
2018-04-28T04:50:48.611Z,80
2018-04-28T04:51:14.105Z,85
2018-04-28T04:51:39.609Z,85
2018-04-28T04:52:05.130Z,85
2018-04-28T04:52:30.692Z,85
2018-04-28T04:52:56.167Z,85
2018-04-28T04:53:21.629Z,85
2018-04-28T04:53:47.190Z,85
2018-04-28T04:54:12.634Z,90
2018-04-28T04:54:38.097Z,90
2018-04-28T04:55:03.593Z,90
2018-04-28T04:55:29.216Z,90
2018-04-28T04:55:54.630Z,90
2018-04-28T04:56:20.129Z,90
2018-04-28T04:56:45.591Z,95
2018-04-28T04:57:11.147Z,95
2018-04-28T04:57:36.636Z,95
2018-04-28T04:58:02.103Z,95
2018-04-28T04:58:27.576Z,95
2018-04-28T04:58:53.052Z,95
2018-04-28T04:59:18.557Z,95
2018-04-28T04:59:44.057Z,95
2018-04-28T05:00:09.543Z,95
2018-04-28T05:00:35.034Z,95
2018-04-28T05:01:00.560Z,95
2018-04-28T05:01:26.051Z,95
2018-04-28T05:01:51.539Z,95
2018-04-28T05:02:17.041Z,95
2018-04-28T05:02:42.545Z,95
2018-04-28T05:03:07.996Z,100
2018-04-28T05:03:33.558Z,100
2018-04-28T05:03:59.048Z,100
2018-04-28T05:04:25.194Z,105
2018-04-28T05:04:50.576Z,105
2018-04-28T05:05:16.277Z,110
2018-04-28T05:05:41.951Z,110
2018-04-28T05:06:07.462Z,110
2018-04-28T05:06:32.997Z,110
2018-04-28T05:06:58.570Z,110
2018-04-28T05:07:24.066Z,115
2018-04-28T05:07:49.873Z,115
2018-04-28T05:08:16.536Z,120
2018-04-28T05:08:42.050Z,120
2018-04-28T05:09:08.261Z,120
2018-04-28T05:09:33.813Z,120
2018-04-28T05:09:59.345Z,125
2018-04-28T05:10:24.922Z,125
2018-04-28T05:10:50.509Z,125
2018-04-28T05:11:16.103Z,125
2018-04-28T05:11:41.726Z,135
2018-04-28T05:12:07.340Z,130
2018-04-28T05:12:32.942Z,130
2018-04-28T05:13:00.688Z,130
2018-04-28T05:13:29.566Z,130
2018-04-28T05:13:55.261Z,130
2018-04-28T05:14:20.812Z,130
2018-04-28T05:14:47.079Z,130
2018-04-28T05:15:12.739Z,130
2018-04-28T05:15:39.212Z,125
2018-04-28T05:16:04.583Z,130
2018-04-28T05:16:30.194Z,130
2018-04-28T05:16:55.962Z,135
2018-04-28T05:17:21.370Z,135
2018-04-28T05:17:46.924Z,130
2018-04-28T05:18:12.651Z,135
2018-04-28T05:18:39.330Z,135
2018-04-28T05:19:05.141Z,140
2018-04-28T05:19:30.674Z,140
2018-04-28T05:19:56.374Z,145
2018-04-28T05:20:22.941Z,150
2018-04-28T05:20:49.020Z,155
2018-04-28T05:21:14.671Z,155
2018-04-28T05:21:40.358Z,155
2018-04-28T05:22:05.987Z,155
2018-04-28T05:22:31.704Z,155
2018-04-28T05:22:57.692Z,160
2018-04-28T05:23:23.216Z,160
2018-04-28T05:23:49.161Z,165
2018-04-28T05:24:15.254Z,170
2018-04-28T05:25:23.633Z,180
2018-04-28T05:25:49.406Z,185
2018-04-28T05:26:15.840Z,185
2018-04-28T05:26:42.031Z,190
2018-04-28T05:27:10.106Z,185
2018-04-28T05:27:35.708Z,185
2018-04-28T05:28:01.279Z,190
2018-04-28T05:28:26.779Z,190
2018-04-28T05:28:52.294Z,190
2018-04-28T05:29:17.857Z,195
2018-04-28T05:29:43.465Z,200
2018-04-28T05:30:09.043Z,200
2018-04-28T05:30:34.683Z,205
2018-04-28T05:31:00.234Z,205
2018-04-28T05:31:25.842Z,205
2018-04-28T05:31:51.517Z,205
2018-04-28T05:32:17.136Z,210
2018-04-28T05:32:42.782Z,215
2018-04-28T05:33:08.342Z,210
2018-04-28T05:33:34.010Z,210
2018-04-28T05:33:59.511Z,205
2018-04-28T05:34:25.133Z,210
2018-04-28T05:34:50.780Z,210
2018-04-28T05:35:16.366Z,215
2018-04-28T05:35:42.038Z,215
2018-04-28T05:36:07.663Z,220
2018-04-28T05:36:33.319Z,220
2018-04-28T05:36:58.894Z,220
2018-04-28T05:37:24.545Z,225
2018-04-28T05:37:50.090Z,225
2018-04-28T05:38:15.671Z,225
2018-04-28T05:38:41.248Z,230
2018-04-28T05:39:06.812Z,230
2018-04-28T05:39:32.387Z,225
2018-04-28T05:39:58.047Z,225
2018-04-28T05:40:23.657Z,225
2018-04-28T05:40:49.199Z,225
2018-04-28T05:41:14.686Z,225
2018-04-28T05:41:40.222Z,225
2018-04-28T05:42:05.810Z,225
2018-04-28T05:42:31.549Z,220
2018-04-28T05:42:57.109Z,220
2018-04-28T05:43:22.636Z,220
2018-04-28T05:43:48.331Z,225
2018-04-28T05:44:13.897Z,220
2018-04-28T05:44:39.439Z,220
2018-04-28T05:45:05.056Z,220
2018-04-28T05:45:30.573Z,225
2018-04-28T05:45:56.200Z,225
2018-04-28T05:46:21.736Z,230
2018-04-28T05:46:47.281Z,235
2018-04-28T05:47:12.833Z,235
2018-04-28T05:47:38.529Z,235
2018-04-28T05:48:04.159Z,240
2018-04-28T05:48:29.841Z,240
2018-04-28T05:48:55.507Z,225
2018-04-28T05:49:21.211Z,235
2018-04-28T05:49:46.753Z,240
2018-04-28T05:50:12.504Z,230
2018-04-28T05:50:38.038Z,230
2018-04-28T05:51:03.681Z,245
2018-04-28T05:51:29.456Z,250
2018-04-28T05:51:55.032Z,245
2018-04-28T05:52:20.748Z,245
2018-04-28T05:52:46.197Z,245
2018-04-28T05:53:11.892Z,245
2018-04-28T05:53:37.541Z,255
2018-04-28T05:54:03.288Z,260
2018-04-28T05:54:29.018Z,260
2018-04-28T05:54:54.763Z,255
2018-04-28T05:55:20.625Z,240
2018-04-28T05:55:46.360Z,240
2018-04-28T05:56:12.002Z,235
2018-04-28T05:56:37.640Z,240
2018-04-28T05:57:03.347Z,240
2018-04-28T05:57:29.583Z,240
2018-04-28T05:57:55.247Z,250
2018-04-28T05:58:20.837Z,255
2018-04-28T05:58:46.907Z,255
2018-04-28T05:59:12.546Z,255
2018-04-28T05:59:38.086Z,255
2018-04-28T06:00:03.808Z,255
2018-04-28T06:00:29.291Z,255
2018-04-28T06:00:54.907Z,255
2018-04-28T06:01:20.419Z,250
2018-04-28T06:01:45.987Z,245
2018-04-28T06:02:11.699Z,245
2018-04-28T06:02:37.375Z,245
2018-04-28T06:03:02.983Z,240
2018-04-28T06:03:28.586Z,240
2018-04-28T06:03:54.377Z,240
2018-04-28T06:04:20.008Z,245
2018-04-28T06:04:45.604Z,245
2018-04-28T06:05:11.260Z,250
2018-04-28T06:05:37.077Z,255
2018-04-28T06:06:02.714Z,250
2018-04-28T06:06:28.284Z,250
2018-04-28T06:06:53.923Z,250
2018-04-28T06:07:19.619Z,245
2018-04-28T06:07:45.208Z,245
2018-04-28T06:08:10.798Z,245
2018-04-28T06:08:36.584Z,240
2018-04-28T06:09:02.244Z,240
2018-04-28T06:09:28.128Z,240
2018-04-28T06:09:53.662Z,240
2018-04-28T06:10:19.603Z,250
2018-04-28T06:10:45.257Z,245
2018-04-28T06:11:11.105Z,240
2018-04-28T06:11:36.729Z,240
2018-04-28T06:12:02.947Z,245
2018-04-28T06:12:28.296Z,255
2018-04-28T06:12:54.512Z,285
2018-04-28T06:13:20.785Z,295
2018-04-28T06:13:46.484Z,300
2018-04-28T06:14:12.372Z,305
2018-04-28T06:14:38.288Z,325
2018-04-28T06:15:04.635Z,335
2018-04-28T06:15:29.980Z,345
2018-04-28T06:15:55.473Z,360
2018-04-28T06:16:21.153Z,360
2018-04-28T06:16:46.994Z,360
2018-04-28T06:17:12.631Z,365
2018-04-28T06:17:38.307Z,350
2018-04-28T06:18:04.040Z,380
2018-04-28T06:18:29.510Z,390
2018-04-28T06:18:55.071Z,400
2018-04-28T06:19:20.676Z,370
2018-04-28T06:19:46.288Z,365
2018-04-28T06:20:11.798Z,380
2018-04-28T06:20:37.270Z,375
2018-04-28T06:21:02.878Z,410
2018-04-28T06:21:28.487Z,390
2018-04-28T06:21:54.054Z,355
2018-04-28T06:22:19.683Z,335
2018-04-28T06:22:45.492Z,325
2018-04-28T06:23:11.678Z,325
2018-04-28T06:23:37.290Z,310
2018-04-28T06:24:02.958Z,300
2018-04-28T06:24:28.591Z,290
2018-04-28T06:24:54.232Z,285
2018-04-28T06:25:19.981Z,275
2018-04-28T06:25:45.671Z,270
2018-04-28T06:26:11.551Z,260
2018-04-28T06:26:38.255Z,255
2018-04-28T06:27:03.875Z,250
2018-04-28T06:27:29.411Z,250
2018-04-28T06:27:54.930Z,250
2018-04-28T06:28:20.451Z,245
2018-04-28T06:28:45.988Z,245
2018-04-28T06:29:11.523Z,245
2018-04-28T06:29:36.983Z,245
2018-04-28T06:30:02.501Z,240
2018-04-28T06:30:27.974Z,235
2018-04-28T06:30:53.427Z,230
2018-04-28T06:31:18.989Z,230
2018-04-28T06:31:44.450Z,230
2018-04-28T06:32:09.996Z,230
2018-04-28T06:32:35.485Z,230
2018-04-28T06:33:00.968Z,230
2018-04-28T06:33:26.455Z,230
2018-04-28T06:33:51.913Z,235
2018-04-28T06:34:17.423Z,240
2018-04-28T06:34:42.988Z,245
2018-04-28T06:35:08.467Z,250
2018-04-28T06:35:34.125Z,260
2018-04-28T06:35:59.609Z,265
2018-04-28T06:36:25.168Z,275
2018-04-28T06:36:50.686Z,285
2018-04-28T06:37:16.248Z,290
2018-04-28T06:37:41.713Z,300
2018-04-28T06:38:07.294Z,305
2018-04-28T06:38:32.875Z,310
2018-04-28T06:38:58.411Z,315
2018-04-28T06:39:23.937Z,320
2018-04-28T06:39:49.387Z,330
2018-04-28T06:40:14.917Z,340
2018-04-28T06:40:40.403Z,345
2018-04-28T06:41:05.967Z,345
2018-04-28T06:41:31.397Z,350
2018-04-28T06:41:56.882Z,355
2018-04-28T06:42:22.440Z,375
2018-04-28T06:42:48.050Z,375
2018-04-28T06:43:13.556Z,375
2018-04-28T06:43:39.235Z,370
2018-04-28T06:44:04.639Z,370
2018-04-28T06:44:30.181Z,370
2018-04-28T06:44:55.659Z,370
2018-04-28T06:45:21.185Z,375
2018-04-28T06:45:46.691Z,375
2018-04-28T06:46:12.184Z,385
2018-04-28T06:46:37.678Z,380
2018-04-28T06:47:03.179Z,400
2018-04-28T06:47:28.662Z,415
2018-04-28T06:47:54.168Z,435
2018-04-28T06:48:19.695Z,430
2018-04-28T06:48:45.214Z,395
2018-04-28T06:49:10.747Z,495
2018-04-28T06:49:36.248Z,565
2018-04-28T06:50:01.776Z,605
2018-04-28T06:50:27.251Z,520
2018-04-28T06:50:52.854Z,490
2018-04-28T06:51:18.341Z,435
2018-04-28T06:51:43.848Z,425
2018-04-28T06:52:09.520Z,350
2018-04-28T06:52:35.112Z,360
2018-04-28T06:53:00.596Z,340
2018-04-28T06:53:26.085Z,340
2018-04-28T06:53:51.621Z,445
2018-04-28T06:54:17.151Z,390
2018-04-28T06:54:42.658Z,495
2018-04-28T06:55:08.232Z,610
2018-04-28T06:55:33.686Z,595
2018-04-28T06:55:59.178Z,670
2018-04-28T06:56:24.650Z,760
2018-04-28T06:56:50.388Z,550
2018-04-28T06:57:15.940Z,710
2018-04-28T06:57:41.480Z,700
2018-04-28T06:58:06.939Z,690
2018-04-28T06:58:32.529Z,695
2018-04-28T06:58:58.018Z,680
2018-04-28T06:59:23.603Z,650
2018-04-28T06:59:49.130Z,630
2018-04-28T07:00:14.729Z,550
2018-04-28T07:00:40.181Z,540
2018-04-28T07:01:05.678Z,620
2018-04-28T07:02:14.423Z,645
2018-04-28T07:02:39.943Z,630
2018-04-28T07:03:05.847Z,635
2018-04-28T07:03:31.352Z,645
2018-04-28T07:03:56.847Z,640
2018-04-28T07:04:22.335Z,630
2018-04-28T07:04:47.854Z,595
2018-04-28T07:05:13.376Z,560
2018-04-28T07:05:38.833Z,515
2018-04-28T07:06:04.380Z,475
2018-04-28T07:06:29.875Z,425
2018-04-28T07:06:55.327Z,435
2018-04-28T07:07:20.821Z,410
2018-04-28T07:07:46.373Z,425
2018-04-28T07:08:11.884Z,420
2018-04-28T07:08:37.342Z,420
2018-04-28T07:09:02.812Z,420
2018-04-28T07:09:28.307Z,410
2018-04-28T07:09:53.863Z,415
2018-04-28T07:10:19.331Z,410
2018-04-28T07:10:44.915Z,410
2018-04-28T07:11:10.391Z,410
2018-04-28T07:11:35.885Z,410
2018-04-28T07:12:01.365Z,405
2018-04-28T07:12:26.909Z,410
2018-04-28T07:12:52.405Z,415
2018-04-28T07:13:17.903Z,405
2018-04-28T07:13:43.422Z,400
2018-04-28T07:14:08.921Z,405
2018-04-28T07:14:34.438Z,410
2018-04-28T07:14:59.918Z,415
2018-04-28T07:15:25.410Z,410
2018-04-28T07:15:50.938Z,410
2018-04-28T07:16:16.464Z,425
2018-04-28T07:16:42.025Z,430
2018-04-28T07:17:07.502Z,420
2018-04-28T07:17:33.005Z,440
2018-04-28T07:17:58.480Z,445
2018-04-28T07:18:23.998Z,445
2018-04-28T07:18:49.474Z,445
2018-04-28T07:19:15.034Z,445
2018-04-28T07:19:40.528Z,440
2018-04-28T07:20:06.018Z,425
2018-04-28T07:20:31.539Z,420
2018-04-28T07:20:57.032Z,430
2018-04-28T07:21:22.549Z,430
2018-04-28T07:21:48.083Z,435
2018-04-28T07:22:13.592Z,440
2018-04-28T07:22:39.104Z,415
2018-04-28T07:23:04.596Z,435
2018-04-28T07:23:30.131Z,410
2018-04-28T07:23:55.673Z,405
2018-04-28T07:24:21.234Z,400
2018-04-28T07:24:46.748Z,410
2018-04-28T07:25:12.293Z,400
2018-04-28T07:25:37.790Z,400
2018-04-28T07:26:03.239Z,390
2018-04-28T07:26:28.815Z,390
2018-04-28T07:26:54.262Z,400
2018-04-28T07:27:19.754Z,385
2018-04-28T07:27:45.250Z,395
2018-04-28T07:28:10.755Z,390
2018-04-28T07:28:36.309Z,385
2018-04-28T07:29:01.900Z,385
2018-04-28T07:29:27.362Z,395
2018-04-28T07:29:52.852Z,395
2018-04-28T07:30:18.297Z,400
2018-04-28T07:30:43.775Z,410
2018-04-28T07:31:09.247Z,415
2018-04-28T07:31:34.833Z,415
2018-04-28T07:32:00.381Z,415
2018-04-28T07:32:25.916Z,420
2018-04-28T07:32:51.455Z,435
2018-04-28T07:33:17.001Z,435
2018-04-28T07:33:42.520Z,435
2018-04-28T07:34:08.028Z,435
2018-04-28T07:34:33.505Z,435
2018-04-28T07:34:58.969Z,440
2018-04-28T07:35:24.533Z,435
2018-04-28T07:35:50.001Z,445
2018-04-28T07:36:15.567Z,445
2018-04-28T07:36:41.054Z,440
2018-04-28T07:37:06.627Z,440
2018-04-28T07:37:32.139Z,430
2018-04-28T07:37:57.633Z,425
2018-04-28T07:38:23.127Z,425
2018-04-28T07:38:48.649Z,420
2018-04-28T07:39:14.147Z,425
2018-04-28T07:39:39.705Z,430
2018-04-28T07:40:05.203Z,440
2018-04-28T07:40:30.669Z,425
2018-04-28T07:40:56.165Z,425
2018-04-28T07:41:21.641Z,450
2018-04-28T07:41:47.141Z,460
2018-04-28T07:42:12.671Z,455
2018-04-28T07:42:38.196Z,465
2018-04-28T07:43:03.696Z,460
2018-04-28T07:43:29.771Z,455
2018-04-28T07:43:55.336Z,455
2018-04-28T07:44:20.869Z,465
2018-04-28T07:44:46.470Z,455
2018-04-28T07:45:11.928Z,450
2018-04-28T07:45:37.432Z,450
2018-04-28T07:46:02.922Z,460
2018-04-28T07:46:28.419Z,455
2018-04-28T07:46:53.896Z,450
2018-04-28T07:47:19.444Z,440
2018-04-28T07:47:44.972Z,435
2018-04-28T07:48:10.493Z,425
2018-04-28T07:48:35.991Z,415
2018-04-28T07:49:01.489Z,410
2018-04-28T07:49:27.026Z,410
2018-04-28T07:49:52.627Z,415
2018-04-28T07:50:18.177Z,415
2018-04-28T07:50:43.808Z,415
2018-04-28T07:51:09.326Z,415
2018-04-28T07:51:34.893Z,410
2018-04-28T07:52:01.870Z,415
2018-04-28T07:52:27.340Z,405
2018-04-28T07:52:52.849Z,405
2018-04-28T07:53:18.461Z,400
2018-04-28T07:53:44.035Z,385
2018-04-28T07:54:09.633Z,390
2018-04-28T07:54:35.064Z,385
2018-04-28T07:55:00.643Z,385
2018-04-28T07:55:26.194Z,385
2018-04-28T07:55:51.880Z,385
2018-04-28T07:56:17.395Z,390
2018-04-28T07:56:42.915Z,385
2018-04-28T07:57:08.420Z,385
2018-04-28T07:57:33.967Z,390
2018-04-28T07:57:59.484Z,395
2018-04-28T07:58:24.992Z,400
2018-04-28T07:58:50.568Z,415
2018-04-28T07:59:16.129Z,415
2018-04-28T07:59:41.703Z,425
2018-04-28T08:00:07.225Z,435
2018-04-28T08:00:32.834Z,440
2018-04-28T08:00:58.345Z,460
2018-04-28T08:01:23.939Z,445
2018-04-28T08:01:49.537Z,435
2018-04-28T08:02:15.130Z,435
2018-04-28T08:02:40.673Z,435
2018-04-28T08:03:06.216Z,420
2018-04-28T08:03:31.737Z,410
2018-04-28T08:03:57.282Z,425
2018-04-28T08:04:22.794Z,425
2018-04-28T08:04:48.307Z,415
2018-04-28T08:05:13.844Z,430
2018-04-28T08:05:39.373Z,440
2018-04-28T08:06:04.879Z,435
2018-04-28T08:06:30.389Z,430
2018-04-28T08:06:56.036Z,415
2018-04-28T08:07:21.452Z,405
2018-04-28T08:07:46.960Z,395
2018-04-28T08:08:12.464Z,390
2018-04-28T08:08:37.966Z,380
2018-04-28T08:09:03.466Z,375
2018-04-28T08:09:28.955Z,365
2018-04-28T08:09:54.456Z,350
2018-04-28T08:10:19.945Z,330
2018-04-28T08:10:45.454Z,320
2018-04-28T08:11:10.986Z,320
2018-04-28T08:11:36.473Z,320
2018-04-28T08:12:01.960Z,320
2018-04-28T08:12:27.443Z,325
2018-04-28T08:12:52.929Z,335
2018-04-28T08:13:18.461Z,345
2018-04-28T08:13:43.970Z,360
2018-04-28T08:14:09.473Z,370
2018-04-28T08:14:34.942Z,370
2018-04-28T08:15:00.435Z,365
2018-04-28T08:15:25.951Z,360
2018-04-28T08:15:51.452Z,355
2018-04-28T08:16:16.939Z,340
2018-04-28T08:16:42.407Z,330
2018-04-28T08:17:07.893Z,320
2018-04-28T08:17:33.389Z,305
2018-04-28T08:17:58.913Z,290
2018-04-28T08:18:24.379Z,275
2018-04-28T08:18:49.883Z,275
2018-04-28T08:19:15.374Z,280
2018-04-28T08:19:40.838Z,285
2018-04-28T08:20:06.324Z,285
2018-04-28T08:20:31.820Z,275
2018-04-28T08:20:57.306Z,275
2018-04-28T08:21:22.801Z,270
2018-04-28T08:21:48.326Z,270
2018-04-28T08:22:13.817Z,275
2018-04-28T08:22:39.308Z,280
2018-04-28T08:23:04.785Z,280
2018-04-28T08:23:30.283Z,280
2018-04-28T08:23:55.855Z,275
2018-04-28T08:25:14.833Z,240
2018-04-28T08:25:40.331Z,230
2018-04-28T08:26:05.823Z,225
2018-04-28T08:26:31.380Z,225
2018-04-28T08:26:56.829Z,230
2018-04-28T08:27:22.360Z,230
2018-04-28T08:27:47.954Z,230
2018-04-28T08:28:13.490Z,230
2018-04-28T08:28:39.006Z,225
2018-04-28T08:29:04.463Z,230
2018-04-28T08:29:29.991Z,235
2018-04-28T08:29:55.479Z,235
2018-04-28T08:30:21.030Z,225
2018-04-28T08:30:46.517Z,210
2018-04-28T08:31:12.053Z,205
2018-04-28T08:31:37.663Z,210
2018-04-28T08:32:03.166Z,210
2018-04-28T08:32:28.640Z,215
2018-04-28T08:32:54.215Z,220
2018-04-28T08:33:19.689Z,230
2018-04-28T08:33:45.216Z,240
2018-04-28T08:34:10.710Z,250
2018-04-28T08:34:36.230Z,250
2018-04-28T08:35:01.769Z,250
2018-04-28T08:35:27.328Z,250
2018-04-28T08:36:46.357Z,255
2018-04-28T08:37:12.030Z,255
2018-04-28T08:37:37.445Z,260
2018-04-28T08:38:03.017Z,265
2018-04-28T08:38:28.606Z,265
2018-04-28T08:38:54.258Z,270
2018-04-28T08:39:19.862Z,270
2018-04-28T08:39:45.445Z,265
2018-04-28T08:40:10.981Z,255
2018-04-28T08:40:36.559Z,250
2018-04-28T08:41:02.150Z,260
2018-04-28T08:41:27.756Z,265
2018-04-28T08:41:53.239Z,275
2018-04-28T08:42:18.810Z,265
2018-04-28T08:42:44.332Z,265
2018-04-28T08:43:09.858Z,265
2018-04-28T08:43:35.372Z,270
2018-04-28T08:44:00.918Z,275
2018-04-28T08:44:26.438Z,280
2018-04-28T08:44:51.980Z,285
2018-04-28T08:45:17.523Z,290
2018-04-28T08:45:43.068Z,300
2018-04-28T08:46:08.582Z,315
2018-04-28T08:46:34.164Z,320
2018-04-28T08:46:59.701Z,335
2018-04-28T08:47:25.393Z,350
2018-04-28T08:47:50.935Z,350
2018-04-28T08:48:16.701Z,355
2018-04-28T08:48:42.253Z,350
2018-04-28T08:49:07.777Z,365
2018-04-28T08:49:33.354Z,370
2018-04-28T08:49:59.027Z,370
2018-04-28T08:50:24.677Z,375
2018-04-28T08:50:50.279Z,360
2018-04-28T08:51:15.793Z,355
2018-04-28T08:51:41.324Z,350
2018-04-28T08:52:06.874Z,340
2018-04-28T08:52:32.418Z,345
2018-04-28T08:52:57.961Z,355
2018-04-28T08:53:23.511Z,360
2018-04-28T08:53:49.116Z,360
2018-04-28T08:54:14.617Z,360
2018-04-28T08:54:40.124Z,350
2018-04-28T08:55:05.670Z,340
2018-04-28T08:55:31.233Z,345
2018-04-28T08:55:56.810Z,355
2018-04-28T08:56:22.320Z,365
2018-04-28T08:56:47.824Z,375
2018-04-28T08:57:13.363Z,370
2018-04-28T08:57:38.908Z,375
2018-04-28T08:58:04.428Z,390
2018-04-28T08:58:29.965Z,405
2018-04-28T08:58:55.477Z,425
2018-04-28T08:59:21.061Z,430
2018-04-28T08:59:46.565Z,435
2018-04-28T09:00:12.072Z,440
2018-04-28T09:00:37.661Z,440
2018-04-28T09:01:03.240Z,425
2018-04-28T09:01:28.754Z,420
2018-04-28T09:01:54.349Z,430
2018-04-28T09:02:19.896Z,435
2018-04-28T09:02:45.434Z,430
2018-04-28T09:03:10.917Z,435
2018-04-28T09:03:36.489Z,440
2018-04-28T09:04:01.916Z,455
2018-04-28T09:04:27.484Z,480
2018-04-28T09:04:52.990Z,480
2018-04-28T09:05:18.471Z,475
2018-04-28T09:05:43.991Z,460
2018-04-28T09:06:09.532Z,460
2018-04-28T09:06:35.069Z,465
2018-04-28T09:07:00.595Z,475
2018-04-28T09:07:26.164Z,470
2018-04-28T09:07:51.654Z,460
2018-04-28T09:08:17.137Z,450
2018-04-28T09:08:42.719Z,430
2018-04-28T09:09:08.226Z,410
2018-04-28T09:09:33.727Z,395
2018-04-28T09:09:59.321Z,390
2018-04-28T09:10:24.871Z,390
2018-04-28T09:10:50.418Z,415
2018-04-28T09:11:15.925Z,440
2018-04-28T09:11:41.426Z,455
2018-04-28T09:12:06.964Z,470
2018-04-28T09:12:32.468Z,485
2018-04-28T09:12:58.003Z,475
2018-04-28T09:13:23.437Z,475
2018-04-28T09:13:48.960Z,470
2018-04-28T09:14:14.440Z,475
2018-04-28T09:14:40.025Z,485
2018-04-28T09:15:05.743Z,480
2018-04-28T09:15:31.408Z,490
2018-04-28T09:15:57.128Z,485
2018-04-28T09:16:22.782Z,470
2018-04-28T09:16:48.333Z,455
2018-04-28T09:17:13.859Z,435
2018-04-28T09:17:39.571Z,425
2018-04-28T09:18:05.297Z,415
2018-04-28T09:18:30.867Z,430
2018-04-28T09:18:56.648Z,450
2018-04-28T09:19:22.515Z,445
2018-04-28T09:19:48.401Z,440
2018-04-28T09:20:14.464Z,425
2018-04-28T09:20:40.751Z,405
2018-04-28T09:22:04.975Z,355
2018-04-28T09:22:30.526Z,360
2018-04-28T09:22:56.376Z,370
2018-04-28T09:23:22.245Z,370
2018-04-28T09:23:47.755Z,370
2018-04-28T09:24:13.270Z,365
2018-04-28T09:24:38.744Z,365
2018-04-28T09:25:04.288Z,355
2018-04-28T09:25:29.740Z,350
2018-04-28T09:25:55.229Z,350
2018-04-28T09:26:20.825Z,360
2018-04-28T09:26:46.270Z,355
2018-04-28T09:27:11.839Z,350
2018-04-28T09:27:37.332Z,355
2018-04-28T09:28:02.817Z,340
2018-04-28T09:28:28.326Z,340
2018-04-28T09:28:53.842Z,345
2018-04-28T09:29:19.374Z,335
2018-04-28T09:29:44.857Z,325
2018-04-28T09:30:10.310Z,310
2018-04-28T09:30:35.820Z,305
2018-04-28T09:31:01.319Z,305
2018-04-28T09:31:26.817Z,300
2018-04-28T09:31:52.313Z,315
2018-04-28T09:32:17.805Z,345
2018-04-28T09:32:43.287Z,370
2018-04-28T09:33:08.770Z,365
2018-04-28T09:33:34.258Z,350
2018-04-28T09:33:59.780Z,320
2018-04-28T09:34:25.292Z,300
2018-04-28T09:34:50.871Z,285
2018-04-28T09:35:16.389Z,275
2018-04-28T09:35:41.883Z,270
2018-04-28T09:36:07.384Z,280
2018-04-28T09:36:32.877Z,300
2018-04-28T09:36:58.410Z,295
2018-04-28T09:37:23.920Z,290
2018-04-28T09:37:49.426Z,290
2018-04-28T09:38:14.945Z,295
2018-04-28T09:38:40.452Z,310
2018-04-28T09:39:05.950Z,335
2018-04-28T09:39:31.459Z,345
2018-04-28T09:39:57.028Z,340
2018-04-28T09:40:22.474Z,320
2018-04-28T09:40:47.971Z,315
2018-04-28T09:41:13.457Z,310
2018-04-28T09:41:38.987Z,315
2018-04-28T09:42:04.468Z,330
2018-04-28T09:42:29.945Z,350
2018-04-28T09:42:55.521Z,350
2018-04-28T09:43:20.953Z,330
2018-04-28T09:43:46.417Z,300
2018-04-28T09:44:11.903Z,280
2018-04-28T09:44:37.471Z,260
2018-04-28T09:45:02.911Z,230
2018-04-28T09:45:28.445Z,210
2018-04-28T09:45:53.953Z,195
2018-04-28T09:46:19.492Z,195
2018-04-28T09:46:44.978Z,225
2018-04-28T09:47:10.476Z,270
2018-04-28T09:48:39.544Z,370
2018-04-28T09:49:05.034Z,375
2018-04-28T09:49:30.528Z,390
2018-04-28T09:49:56.031Z,390
2018-04-28T09:50:21.539Z,395
2018-04-28T09:50:47.037Z,395
2018-04-28T09:51:12.515Z,385
2018-04-28T09:51:38.000Z,385
2018-04-28T09:52:03.492Z,370
2018-04-28T09:52:29.010Z,365
2018-04-28T09:52:54.487Z,360
2018-04-28T09:53:20.009Z,350
2018-04-28T09:53:45.459Z,330
2018-04-28T09:54:10.939Z,315
2018-04-28T09:54:36.425Z,305
2018-04-28T09:55:01.905Z,295
2018-04-28T09:55:27.390Z,305
2018-04-28T09:55:52.849Z,330
2018-04-28T09:56:18.359Z,350
2018-04-28T09:56:43.841Z,380
2018-04-28T09:57:09.338Z,410
2018-04-28T09:57:34.845Z,415
2018-04-28T09:58:00.365Z,420
2018-04-28T09:58:25.860Z,415
2018-04-28T09:58:51.371Z,400
2018-04-28T09:59:16.877Z,390
2018-04-28T09:59:42.391Z,365
2018-04-28T10:00:07.874Z,340
2018-04-28T10:00:33.388Z,325
2018-04-28T10:00:58.914Z,325
2018-04-28T10:01:24.413Z,315
2018-04-28T10:01:49.912Z,310
2018-04-28T10:02:15.419Z,320
2018-04-28T10:02:40.919Z,335
2018-04-28T10:03:06.422Z,345
2018-04-28T10:03:31.886Z,340
2018-04-28T10:03:57.377Z,345
2018-04-28T10:04:22.901Z,350
2018-04-28T10:04:48.379Z,345
2018-04-28T10:05:13.866Z,340
2018-04-28T10:05:39.373Z,325
2018-04-28T10:06:04.871Z,315
2018-04-28T10:06:30.493Z,305
2018-04-28T10:07:38.749Z,285
2018-04-28T10:08:04.266Z,275
2018-04-28T10:08:29.754Z,270
2018-04-28T10:08:55.267Z,265
2018-04-28T10:09:20.770Z,255
2018-04-28T10:09:46.305Z,255
2018-04-28T10:10:11.830Z,260
2018-04-28T10:10:37.333Z,270